D'andre Forward — WDH7100 — position and weather

sailwx.info

Track history (hours):
 
Tides and Currents Weather Stations Pressure Air Temp Water Temp Dewpoint Dewpoint Depression Visibility Wind Speed Wind Dir Waves Ship Positions

D'andre Forward

Owner: Florida Marine, LLC, Mandeville, LA. More information available from US FCC via Universal Licensing System and Coast Guard Vessel Documentation Center.

Last reported at 2018-Apr-24 16:38 UTC. Time now 2018-Apr-25 06:57 UTC.
Position N 29°34' W 090°30'.

Length 24 m; draft 2.6 m.

Type: Other ship. MMSI: 367644790.

Date/timePositionNaut miles runAvg speedWind from/ knotsBaromVisibWave heightAir tempDewpointWater temp
2018-Apr-24 16:38N 29°34' W 090°30'1 6.3
2018-Apr-24 16:30N 29°34' W 090°30'3 6.2
2018-Apr-24 16:00N 29°34' W 090°34'2 4.9
2018-Apr-24 15:30N 29°35' W 090°37'3 6.2
2018-Apr-24 15:00N 29°36' W 090°40'2 4.7
2018-Apr-24 14:31N 29°37' W 090°42'2 4.9
2018-Apr-24 14:00N 29°34' W 090°43'2 4.9
2018-Apr-24 13:31N 29°33' W 090°45'3 6.2
2018-Apr-24 13:01N 29°32' W 090°49'3 6.7
2018-Apr-24 12:29N 29°32' W 090°53'3 6.8
2018-Apr-24 12:01N 29°34' W 090°56'113 4.5
2018-Apr-23 10:46N 29°56' W 093°03'2 5.5
2018-Apr-23 10:28N 29°56' W 093°05'2 5.3
2018-Apr-23 10:00N 29°56' W 093°08'2 4.8
2018-Apr-23 09:30N 29°57' W 093°11'3 5.4
2018-Apr-23 09:01N 29°59' W 093°13'3 5.0
2018-Apr-23 08:30N 30°01' W 093°14'2 4.6
2018-Apr-23 08:00N 30°03' W 093°16'3 5.0
2018-Apr-23 07:30N 30°05' W 093°17'2 3.1
2018-Apr-23 07:00N 30°06' W 093°19'0 0.0
2018-Apr-23 06:30N 30°06' W 093°19'0 0.0
2018-Apr-23 06:00N 30°06' W 093°19'0 0.0
2018-Apr-23 05:31N 30°06' W 093°19'0 0.0
2018-Apr-23 05:00N 30°06' W 093°19'0 0.0
2018-Apr-23 04:26N 30°06' W 093°19'0 0.0
2018-Apr-23 04:00N 30°06' W 093°19'0 0.0
2018-Apr-23 03:31N 30°06' W 093°19'0 0.0
2018-Apr-23 02:58N 30°06' W 093°19'0 0.0
2018-Apr-23 02:30N 30°06' W 093°19'0 0.1
2018-Apr-23 02:01N 30°06' W 093°19'1 2.0
2018-Apr-23 01:31N 30°05' W 093°20'3 5.0
2018-Apr-23 01:00N 30°04' W 093°22'3 5.8
2018-Apr-23 00:30N 30°04' W 093°25'3 5.8
2018-Apr-23 00:00N 30°04' W 093°28'3 5.8
2018-Apr-22 23:30N 30°04' W 093°32'3 5.6
2018-Apr-22 22:59N 30°04' W 093°35'3 5.7
2018-Apr-22 22:31N 30°04' W 093°38'3 5.8
2018-Apr-22 22:00N 30°03' W 093°41'2 4.4
2018-Apr-22 21:30N 30°03' W 093°44'2 4.7
2018-Apr-22 21:00N 30°01' W 093°45'3 5.3
2018-Apr-22 20:29N 29°59' W 093°48'3 5.6
2018-Apr-22 20:00N 29°58' W 093°51'3 5.7
2018-Apr-22 19:30N 29°56' W 093°53'3 5.8
2018-Apr-22 19:00N 29°53' W 093°55'3 5.5
2018-Apr-22 18:30N 29°51' W 093°57'2 5.0
2018-Apr-22 18:00N 29°49' W 093°58'3 5.1
2018-Apr-22 17:30N 29°48' W 094°01'2 4.6
2018-Apr-22 17:00N 29°46' W 094°03'2 4.5
2018-Apr-22 16:31N 29°45' W 094°05'2 4.6
2018-Apr-22 16:00N 29°43' W 094°07'2 4.8
2018-Apr-22 15:30N 29°42' W 094°09'2 4.6
2018-Apr-22 15:00N 29°41' W 094°11'2 3.8
2018-Apr-22 14:30N 29°40' W 094°13'3 5.2
2018-Apr-22 14:00N 29°39' W 094°16'3 5.1
2018-Apr-22 13:30N 29°38' W 094°18'2 5.0
2018-Apr-22 13:01N 29°37' W 094°21'2 4.6
2018-Apr-22 12:29N 29°36' W 094°23'2 3.9
2018-Apr-22 12:00N 29°34' W 094°25'3 4.8
2018-Apr-22 11:17N 29°33' W 094°28'2 5.3
2018-Apr-22 10:53N 29°31' W 094°30'4 3.0
2018-Apr-22 09:41N 29°30' W 094°34'4 5.1
2018-Apr-22 08:54N 29°28' W 094°38'2 5.6
2018-Apr-22 08:28N 29°27' W 094°41'4 1.4
2018-Apr-22 05:34N 29°25' W 094°44'0 0.0
2018-Apr-22 05:30N 29°25' W 094°44'0 0.0
2018-Apr-22 03:40N 29°25' W 094°44'0 0.0
2018-Apr-22 03:29N 29°25' W 094°44'0 0.0
2018-Apr-22 02:43N 29°25' W 094°44'0 0.0
2018-Apr-22 02:23N 29°25' W 094°44'0 0.0
2018-Apr-22 01:57N 29°25' W 094°44'8 2.1
2018-Apr-21 22:08N 29°20' W 094°51'  
2018-Apr-18 14:43N 28°56' W 095°19'2 4.6
2018-Apr-18 14:21N 28°57' W 095°18'2 2.8
2018-Apr-18 13:36N 28°59' W 095°16'0 1.4
2018-Apr-18 13:16N 28°59' W 095°16'1 3.8
2018-Apr-18 12:54N 29°00' W 095°15'2 4.1
2018-Apr-18 12:26N 29°02' W 095°14'2 3.8
2018-Apr-18 11:56N 29°04' W 095°13'2 3.8
2018-Apr-18 11:18N 29°06' W 095°12'1 3.8
2018-Apr-18 10:59N 29°07' W 095°11'2 3.8
2018-Apr-18 10:29N 29°09' W 095°10'3 5.1
2018-Apr-18 09:52N 29°10' W 095°07'2 5.0
2018-Apr-18 09:23N 29°12' W 095°04'5 4.2
2018-Apr-18 08:05N 29°15' W 094°60'0 4.7
2018-Apr-18 07:59N 29°16' W 094°60'2 4.5
2018-Apr-18 07:30N 29°17' W 094°58'2 4.6
2018-Apr-18 07:00N 29°17' W 094°55'10 5.1
2018-Apr-18 05:03N 29°23' W 094°46'0 1.2
2018-Apr-18 04:59N 29°24' W 094°46'0 0.8
2018-Apr-18 04:28N 29°24' W 094°45'2 2.7
2018-Apr-18 03:53N 29°25' W 094°44'0 0.6
2018-Apr-18 03:31N 29°25' W 094°44'2 3.7
2018-Apr-18 03:01N 29°26' W 094°42'3 5.1
2018-Apr-18 02:30N 29°28' W 094°40'3 5.2
2018-Apr-18 01:50N 29°29' W 094°36'2 5.2
2018-Apr-18 01:29N 29°30' W 094°34'2 5.1
2018-Apr-18 01:00N 29°31' W 094°32'3 5.1
2018-Apr-18 00:30N 29°32' W 094°29'3 4.8
2018-Apr-17 23:55N 29°34' W 094°27'2 4.2
2018-Apr-17 23:29N 29°35' W 094°25'2 3.1
2018-Apr-17 22:58N 29°36' W 094°23'2 4.3
2018-Apr-17 22:26N 29°37' W 094°21'2 4.4
2018-Apr-17 22:00N 29°38' W 094°19'2 4.4
2018-Apr-17 21:29N 29°39' W 094°17'2 4.3
2018-Apr-17 21:00N 29°40' W 094°15'2 4.3
2018-Apr-17 20:31N 29°41' W 094°13'2 4.2
2018-Apr-17 20:00N 29°41' W 094°10'2 4.2
2018-Apr-17 19:31N 29°42' W 094°08'2 4.2
2018-Apr-17 19:00N 29°44' W 094°06'2 4.2
2018-Apr-17 18:31N 29°45' W 094°04'2 4.1
2018-Apr-17 18:00N 29°46' W 094°02'2 4.2
2018-Apr-17 17:30N 29°48' W 094°01'2 4.1
2018-Apr-17 17:00N 29°49' W 093°59'2 4.9
2018-Apr-17 16:30N 29°51' W 093°57'3 6.6
2018-Apr-17 16:00N 29°53' W 093°55'3 6.0
2018-Apr-17 15:31N 29°56' W 093°53'3 5.4
2018-Apr-17 15:00N 29°58' W 093°51'3 5.3
2018-Apr-17 14:30N 29°59' W 093°48'3 5.3
2018-Apr-17 14:00N 30°01' W 093°46'3 5.2
2018-Apr-17 13:30N 30°03' W 093°44'2 4.6
2018-Apr-17 13:00N 30°04' W 093°41'2 4.2
2018-Apr-17 12:30N 30°04' W 093°39'2 4.1
2018-Apr-17 12:00N 30°04' W 093°37'2 3.9
2018-Apr-17 11:31N 30°04' W 093°34'2 4.0
2018-Apr-17 11:01N 30°04' W 093°32'2 3.8
2018-Apr-17 10:31N 30°04' W 093°30'2 3.9
2018-Apr-17 10:00N 30°04' W 093°28'2 3.9
2018-Apr-17 09:30N 30°04' W 093°25'2 3.9
2018-Apr-17 09:00N 30°04' W 093°23'2 3.0
2018-Apr-17 08:30N 30°04' W 093°21'2 3.0
2018-Apr-17 08:01N 30°05' W 093°20'2 3.9
2018-Apr-17 07:31N 30°06' W 093°19'1 2.6
2018-Apr-17 07:01N 30°05' W 093°18'1 2.6
2018-Apr-17 06:30N 30°04' W 093°16'0 0.1
2018-Apr-17 06:01N 30°04' W 093°16'0 0.0
2018-Apr-17 05:30N 30°04' W 093°16'0 0.0
2018-Apr-17 05:01N 30°04' W 093°16'0 0.0
2018-Apr-17 04:31N 30°04' W 093°16'0 0.0
2018-Apr-17 04:00N 30°04' W 093°16'0 0.0
2018-Apr-17 03:31N 30°04' W 093°16'0 0.0
2018-Apr-17 03:01N 30°04' W 093°16'0 0.0
2018-Apr-17 02:30N 30°04' W 093°16'1 1.6
2018-Apr-17 02:00N 30°04' W 093°16'1 2.5
2018-Apr-17 01:31N 30°02' W 093°16'1 2.5
2018-Apr-17 01:00N 30°02' W 093°14'2 3.9
2018-Apr-17 00:30N 29°60' W 093°13'2 3.2
2018-Apr-17 00:01N 29°59' W 093°12'2 4.1
2018-Apr-16 23:31N 29°57' W 093°11'2 4.0
2018-Apr-16 23:00N 29°56' W 093°09'2 3.2
2018-Apr-16 22:31N 29°56' W 093°07'2 3.9
2018-Apr-16 21:59N 29°56' W 093°04'112 3.4
2018-Apr-15 13:28N 29°36' W 090°58'3 4.2
2018-Apr-15 12:53N 29°34' W 090°56'2 4.6
2018-Apr-15 12:30N 29°33' W 090°54'2 4.0
2018-Apr-15 11:53N 29°32' W 090°52'2 4.6
2018-Apr-15 11:30N 29°32' W 090°50'2 4.4
2018-Apr-15 11:00N 29°32' W 090°47'2 3.7
2018-Apr-15 10:30N 29°33' W 090°45'2 3.3
2018-Apr-15 10:00N 29°34' W 090°44'2 3.0
2018-Apr-15 09:30N 29°35' W 090°43'2 3.6
2018-Apr-15 09:00N 29°37' W 090°42'1 1.1
2018-Apr-15 08:30N 29°37' W 090°41'0 0.6
2018-Apr-15 08:00N 29°36' W 090°41'1 2.5
2018-Apr-15 07:30N 29°36' W 090°40'1 2.6
2018-Apr-15 07:00N 29°35' W 090°39'2 3.7
2018-Apr-15 06:31N 29°35' W 090°37'2 4.1
2018-Apr-15 06:00N 29°34' W 090°34'2 4.2
2018-Apr-15 05:30N 29°34' W 090°32'2 4.3
2018-Apr-15 05:00N 29°34' W 090°30'2 4.3
2018-Apr-15 04:30N 29°33' W 090°27'  
Track history (hours):
 
Tides and Currents Weather Stations Pressure Air Temp Water Temp Dewpoint Dewpoint Depression Visibility Wind Speed Wind Dir Waves Ship Positions

D'andre Forward

Owner: Florida Marine, LLC, Mandeville, LA. More information available from US FCC via Universal Licensing System and Coast Guard Vessel Documentation Center.

Last reported at 2018-Apr-24 16:38 UTC. Time now 2018-Apr-25 06:57 UTC.
Position N 29°34' W 090°30'.

Length 24 m; draft 2.6 m.

Type: Other ship. MMSI: 367644790.

Date/timePositionNaut miles runAvg speedWind from/ knotsBaromVisibWave heightAir tempDewpointWater temp
2018-Apr-24 16:38N 29°34' W 090°30'1 6.3
2018-Apr-24 16:30N 29°34' W 090°30'3 6.2
2018-Apr-24 16:00N 29°34' W 090°34'2 4.9
2018-Apr-24 15:30N 29°35' W 090°37'3 6.2
2018-Apr-24 15:00N 29°36' W 090°40'2 4.7
2018-Apr-24 14:31N 29°37' W 090°42'2 4.9
2018-Apr-24 14:00N 29°34' W 090°43'2 4.9
2018-Apr-24 13:31N 29°33' W 090°45'3 6.2
2018-Apr-24 13:01N 29°32' W 090°49'3 6.7
2018-Apr-24 12:29N 29°32' W 090°53'3 6.8
2018-Apr-24 12:01N 29°34' W 090°56'113 4.5
2018-Apr-23 10:46N 29°56' W 093°03'2 5.5
2018-Apr-23 10:28N 29°56' W 093°05'2 5.3
2018-Apr-23 10:00N 29°56' W 093°08'2 4.8
2018-Apr-23 09:30N 29°57' W 093°11'3 5.4
2018-Apr-23 09:01N 29°59' W 093°13'3 5.0
2018-Apr-23 08:30N 30°01' W 093°14'2 4.6
2018-Apr-23 08:00N 30°03' W 093°16'3 5.0
2018-Apr-23 07:30N 30°05' W 093°17'2 3.1
2018-Apr-23 07:00N 30°06' W 093°19'0 0.0
2018-Apr-23 06:30N 30°06' W 093°19'0 0.0
2018-Apr-23 06:00N 30°06' W 093°19'0 0.0
2018-Apr-23 05:31N 30°06' W 093°19'0 0.0
2018-Apr-23 05:00N 30°06' W 093°19'0 0.0
2018-Apr-23 04:26N 30°06' W 093°19'0 0.0
2018-Apr-23 04:00N 30°06' W 093°19'0 0.0
2018-Apr-23 03:31N 30°06' W 093°19'0 0.0
2018-Apr-23 02:58N 30°06' W 093°19'0 0.0
2018-Apr-23 02:30N 30°06' W 093°19'0 0.1
2018-Apr-23 02:01N 30°06' W 093°19'1 2.0
2018-Apr-23 01:31N 30°05' W 093°20'3 5.0
2018-Apr-23 01:00N 30°04' W 093°22'3 5.8
2018-Apr-23 00:30N 30°04' W 093°25'3 5.8
2018-Apr-23 00:00N 30°04' W 093°28'3 5.8
2018-Apr-22 23:30N 30°04' W 093°32'3 5.6
2018-Apr-22 22:59N 30°04' W 093°35'3 5.7
2018-Apr-22 22:31N 30°04' W 093°38'3 5.8
2018-Apr-22 22:00N 30°03' W 093°41'2 4.4
2018-Apr-22 21:30N 30°03' W 093°44'2 4.7
2018-Apr-22 21:00N 30°01' W 093°45'3 5.3
2018-Apr-22 20:29N 29°59' W 093°48'3 5.6
2018-Apr-22 20:00N 29°58' W 093°51'3 5.7
2018-Apr-22 19:30N 29°56' W 093°53'3 5.8
2018-Apr-22 19:00N 29°53' W 093°55'3 5.5
2018-Apr-22 18:30N 29°51' W 093°57'2 5.0
2018-Apr-22 18:00N 29°49' W 093°58'3 5.1
2018-Apr-22 17:30N 29°48' W 094°01'2 4.6
2018-Apr-22 17:00N 29°46' W 094°03'2 4.5
2018-Apr-22 16:31N 29°45' W 094°05'2 4.6
2018-Apr-22 16:00N 29°43' W 094°07'2 4.8
2018-Apr-22 15:30N 29°42' W 094°09'2 4.6
2018-Apr-22 15:00N 29°41' W 094°11'2 3.8
2018-Apr-22 14:30N 29°40' W 094°13'3 5.2
2018-Apr-22 14:00N 29°39' W 094°16'3 5.1
2018-Apr-22 13:30N 29°38' W 094°18'2 5.0
2018-Apr-22 13:01N 29°37' W 094°21'2 4.6
2018-Apr-22 12:29N 29°36' W 094°23'2 3.9
2018-Apr-22 12:00N 29°34' W 094°25'3 4.8
2018-Apr-22 11:17N 29°33' W 094°28'2 5.3
2018-Apr-22 10:53N 29°31' W 094°30'4 3.0
2018-Apr-22 09:41N 29°30' W 094°34'4 5.1
2018-Apr-22 08:54N 29°28' W 094°38'2 5.6
2018-Apr-22 08:28N 29°27' W 094°41'4 1.4
2018-Apr-22 05:34N 29°25' W 094°44'0 0.0
2018-Apr-22 05:30N 29°25' W 094°44'0 0.0
2018-Apr-22 03:40N 29°25' W 094°44'0 0.0
2018-Apr-22 03:29N 29°25' W 094°44'0 0.0
2018-Apr-22 02:43N 29°25' W 094°44'0 0.0
2018-Apr-22 02:23N 29°25' W 094°44'0 0.0
2018-Apr-22 01:57N 29°25' W 094°44'8 2.1
2018-Apr-21 22:08N 29°20' W 094°51'  
2018-Apr-18 14:43N 28°56' W 095°19'2 4.6
2018-Apr-18 14:21N 28°57' W 095°18'2 2.8
2018-Apr-18 13:36N 28°59' W 095°16'0 1.4
2018-Apr-18 13:16N 28°59' W 095°16'1 3.8
2018-Apr-18 12:54N 29°00' W 095°15'2 4.1
2018-Apr-18 12:26N 29°02' W 095°14'2 3.8
2018-Apr-18 11:56N 29°04' W 095°13'2 3.8
2018-Apr-18 11:18N 29°06' W 095°12'1 3.8
2018-Apr-18 10:59N 29°07' W 095°11'2 3.8
2018-Apr-18 10:29N 29°09' W 095°10'3 5.1
2018-Apr-18 09:52N 29°10' W 095°07'2 5.0
2018-Apr-18 09:23N 29°12' W 095°04'5 4.2
2018-Apr-18 08:05N 29°15' W 094°60'0 4.7
2018-Apr-18 07:59N 29°16' W 094°60'2 4.5
2018-Apr-18 07:30N 29°17' W 094°58'2 4.6
2018-Apr-18 07:00N 29°17' W 094°55'10 5.1
2018-Apr-18 05:03N 29°23' W 094°46'0 1.2
2018-Apr-18 04:59N 29°24' W 094°46'0 0.8
2018-Apr-18 04:28N 29°24' W 094°45'2 2.7
2018-Apr-18 03:53N 29°25' W 094°44'0 0.6
2018-Apr-18 03:31N 29°25' W 094°44'2 3.7
2018-Apr-18 03:01N 29°26' W 094°42'3 5.1
2018-Apr-18 02:30N 29°28' W 094°40'3 5.2
2018-Apr-18 01:50N 29°29' W 094°36'2 5.2
2018-Apr-18 01:29N 29°30' W 094°34'2 5.1
2018-Apr-18 01:00N 29°31' W 094°32'3 5.1
2018-Apr-18 00:30N 29°32' W 094°29'3 4.8
2018-Apr-17 23:55N 29°34' W 094°27'2 4.2
2018-Apr-17 23:29N 29°35' W 094°25'2 3.1
2018-Apr-17 22:58N 29°36' W 094°23'2 4.3
2018-Apr-17 22:26N 29°37' W 094°21'2 4.4
2018-Apr-17 22:00N 29°38' W 094°19'2 4.4
2018-Apr-17 21:29N 29°39' W 094°17'2 4.3
2018-Apr-17 21:00N 29°40' W 094°15'2 4.3
2018-Apr-17 20:31N 29°41' W 094°13'2 4.2
2018-Apr-17 20:00N 29°41' W 094°10'2 4.2
2018-Apr-17 19:31N 29°42' W 094°08'2 4.2
2018-Apr-17 19:00N 29°44' W 094°06'2 4.2
2018-Apr-17 18:31N 29°45' W 094°04'2 4.1
2018-Apr-17 18:00N 29°46' W 094°02'2 4.2
2018-Apr-17 17:30N 29°48' W 094°01'2 4.1
2018-Apr-17 17:00N 29°49' W 093°59'2 4.9
2018-Apr-17 16:30N 29°51' W 093°57'3 6.6
2018-Apr-17 16:00N 29°53' W 093°55'3 6.0
2018-Apr-17 15:31N 29°56' W 093°53'3 5.4
2018-Apr-17 15:00N 29°58' W 093°51'3 5.3
2018-Apr-17 14:30N 29°59' W 093°48'3 5.3
2018-Apr-17 14:00N 30°01' W 093°46'3 5.2
2018-Apr-17 13:30N 30°03' W 093°44'2 4.6
2018-Apr-17 13:00N 30°04' W 093°41'2 4.2
2018-Apr-17 12:30N 30°04' W 093°39'2 4.1
2018-Apr-17 12:00N 30°04' W 093°37'2 3.9
2018-Apr-17 11:31N 30°04' W 093°34'2 4.0
2018-Apr-17 11:01N 30°04' W 093°32'2 3.8
2018-Apr-17 10:31N 30°04' W 093°30'2 3.9
2018-Apr-17 10:00N 30°04' W 093°28'2 3.9
2018-Apr-17 09:30N 30°04' W 093°25'2 3.9
2018-Apr-17 09:00N 30°04' W 093°23'2 3.0
2018-Apr-17 08:30N 30°04' W 093°21'2 3.0
2018-Apr-17 08:01N 30°05' W 093°20'2 3.9
2018-Apr-17 07:31N 30°06' W 093°19'1 2.6
2018-Apr-17 07:01N 30°05' W 093°18'1 2.6
2018-Apr-17 06:30N 30°04' W 093°16'0 0.1
2018-Apr-17 06:01N 30°04' W 093°16'0 0.0
2018-Apr-17 05:30N 30°04' W 093°16'0 0.0
2018-Apr-17 05:01N 30°04' W 093°16'0 0.0
2018-Apr-17 04:31N 30°04' W 093°16'0 0.0
2018-Apr-17 04:00N 30°04' W 093°16'0 0.0
2018-Apr-17 03:31N 30°04' W 093°16'0 0.0
2018-Apr-17 03:01N 30°04' W 093°16'0 0.0
2018-Apr-17 02:30N 30°04' W 093°16'1 1.6
2018-Apr-17 02:00N 30°04' W 093°16'1 2.5
2018-Apr-17 01:31N 30°02' W 093°16'1 2.5
2018-Apr-17 01:00N 30°02' W 093°14'2 3.9
2018-Apr-17 00:30N 29°60' W 093°13'2 3.2
2018-Apr-17 00:01N 29°59' W 093°12'2 4.1
2018-Apr-16 23:31N 29°57' W 093°11'2 4.0
2018-Apr-16 23:00N 29°56' W 093°09'2 3.2
2018-Apr-16 22:31N 29°56' W 093°07'2 3.9
2018-Apr-16 21:59N 29°56' W 093°04'112 3.4
2018-Apr-15 13:28N 29°36' W 090°58'3 4.2
2018-Apr-15 12:53N 29°34' W 090°56'2 4.6
2018-Apr-15 12:30N 29°33' W 090°54'2 4.0
2018-Apr-15 11:53N 29°32' W 090°52'2 4.6
2018-Apr-15 11:30N 29°32' W 090°50'2 4.4
2018-Apr-15 11:00N 29°32' W 090°47'2 3.7
2018-Apr-15 10:30N 29°33' W 090°45'2 3.3
2018-Apr-15 10:00N 29°34' W 090°44'2 3.0
2018-Apr-15 09:30N 29°35' W 090°43'2 3.6
2018-Apr-15 09:00N 29°37' W 090°42'1 1.1
2018-Apr-15 08:30N 29°37' W 090°41'0 0.6
2018-Apr-15 08:00N 29°36' W 090°41'1 2.5
2018-Apr-15 07:30N 29°36' W 090°40'1 2.6
2018-Apr-15 07:00N 29°35' W 090°39'2 3.7
2018-Apr-15 06:31N 29°35' W 090°37'2 4.1
2018-Apr-15 06:00N 29°34' W 090°34'2 4.2
2018-Apr-15 05:30N 29°34' W 090°32'2 4.3
2018-Apr-15 05:00N 29°34' W 090°30'2 4.3
2018-Apr-15 04:30N 29°33' W 090°27'  

Dump ship's entire track history